Time;durP1;ratioP1;P1;durP2;ratioP2;P2;SDS_P1;SDS_P2;PMS_P1;PMS_P2;Temp;Humidity;BMP_temperature;BMP_pressure;BME280_temperature;BME280_humidity;BME280_pressure;Samples;Min_cycle;Max_cycle;Signal;HPM_P1;HPM_P2
2023/07/29 00:00:34;;;;;;;0.10;0.10;;;;;;;18.21;100.00;98715.28;5112650;28;20193;-57
2023/07/29 00:03:21;;;;;;;0.10;0.10;;;;;;;18.24;100.00;98715.00;5112931;28;20240;-57
2023/07/29 00:06:08;;;;;;;0.10;0.10;;;;;;;18.22;100.00;98718.81;5112920;28;20244;-57
2023/07/29 00:08:56;;;;;;;0.00;0.00;;;;;;;18.15;100.00;98728.50;5111022;28;20232;-57
2023/07/29 00:11:43;;;;;;;0.00;0.00;;;;;;;18.16;100.00;98733.69;5112745;28;20209;-57
2023/07/29 00:14:30;;;;;;;0.10;0.10;;;;;;;18.21;100.00;98730.53;5112790;28;20214;-57
2023/07/29 00:17:17;;;;;;;0.07;0.07;;;;;;;18.17;100.00;98740.75;5111612;28;20186;-57
2023/07/29 00:20:05;;;;;;;0.10;0.10;;;;;;;18.17;100.00;98746.09;5114215;28;20194;-57
2023/07/29 00:22:54;;;;;;;0.10;0.10;;;;;;;18.23;100.00;98750.81;5115115;28;20194;-57
2023/07/29 00:25:43;;;;;;;0.00;0.00;;;;;;;18.28;100.00;98751.19;5116434;28;20309;-57
2023/07/29 00:28:30;;;;;;;0.00;0.00;;;;;;;18.28;100.00;98739.63;5116202;28;20344;-57
2023/07/29 00:31:18;;;;;;;0.00;0.00;;;;;;;18.21;100.00;98741.25;5116207;28;20195;-57
2023/07/29 00:34:05;;;;;;;0.10;0.10;;;;;;;18.22;100.00;98738.41;5116090;28;20229;-57
2023/07/29 00:36:52;;;;;;;0.10;0.10;;;;;;;18.17;100.00;98742.59;5115362;28;20189;-57
2023/07/29 00:39:39;;;;;;;0.10;0.10;;;;;;;18.20;100.00;98739.56;5115177;28;20229;-57
2023/07/29 00:42:27;;;;;;;0.10;0.10;;;;;;;18.23;100.00;98731.22;5115149;28;20206;-57
2023/07/29 00:45:14;;;;;;;0.10;0.10;;;;;;;18.26;100.00;98726.41;5116116;28;20215;-57
2023/07/29 00:48:02;;;;;;;0.10;0.10;;;;;;;18.22;100.00;98734.88;5115964;28;20218;-58
2023/07/29 00:50:49;;;;;;;0.07;0.07;;;;;;;18.25;100.00;98724.72;5116007;28;20227;-57
2023/07/29 00:53:36;;;;;;;0.10;0.10;;;;;;;18.29;100.00;98731.44;5114515;28;20214;-57
2023/07/29 00:56:23;;;;;;;0.10;0.10;;;;;;;18.22;100.00;98719.66;5116208;28;20224;-57
2023/07/29 00:59:11;;;;;;;0.10;0.10;;;;;;;18.33;100.00;98734.63;5114907;28;20190;-57
2023/07/29 01:01:59;;;;;;;0.10;0.10;;;;;;;18.20;100.00;98720.81;5114731;28;20236;-57
2023/07/29 01:04:45;;;;;;;0.10;0.10;;;;;;;18.22;100.00;98725.00;5115679;28;20194;-57
2023/07/29 01:07:40;;;;;;;0.10;0.10;;;;;;;18.24;100.00;98724.88;5113354;28;20201;-57
2023/07/29 01:10:38;;;;;;;0.10;0.10;;;;;;;18.36;100.00;98714.72;5115814;28;20289;-57
2023/07/29 01:13:32;;;;;;;0.00;0.00;;;;;;;18.45;100.00;98721.81;5115484;28;20189;-57
2023/07/29 01:16:29;;;;;;;0.00;0.00;;;;;;;18.54;100.00;98724.38;5115503;28;20191;-57
2023/07/29 01:19:31;;;;;;;0.10;0.10;;;;;;;18.55;100.00;98722.53;5115568;28;20665;-57
2023/07/29 01:22:19;;;;;;;0.00;0.00;;;;;;;18.61;100.00;98716.53;5113084;28;20221;-57
2023/07/29 01:25:08;;;;;;;0.10;0.10;;;;;;;18.67;100.00;98721.28;5115300;28;20206;-57
2023/07/29 01:27:55;;;;;;;0.00;0.00;;;;;;;18.58;100.00;98715.00;5114202;28;20369;-57
2023/07/29 01:30:45;;;;;;;0.10;0.10;;;;;;;18.72;100.00;98720.78;5114857;28;20257;-57
2023/07/29 01:33:36;;;;;;;0.10;0.10;;;;;;;18.97;100.00;98716.38;5113910;28;20201;-57
2023/07/29 01:36:26;;;;;;;0.10;0.10;;;;;;;18.88;100.00;98708.28;5114844;28;20241;-57
2023/07/29 01:39:15;;;;;;;0.10;0.10;;;;;;;18.80;100.00;98697.53;5114147;28;20264;-57
2023/07/29 01:42:04;;;;;;;0.10;0.10;;;;;;;18.61;100.00;98692.38;5114955;28;20267;-57
2023/07/29 01:44:51;;;;;;;0.00;0.00;;;;;;;18.58;100.00;98687.34;5114862;28;20186;-57
2023/07/29 01:47:40;;;;;;;0.00;0.00;;;;;;;18.73;100.00;98676.88;5113875;28;20190;-57
2023/07/29 01:50:27;;;;;;;0.10;0.10;;;;;;;18.71;100.00;98676.19;5113656;28;20287;-57
2023/07/29 01:53:14;;;;;;;0.10;0.10;;;;;;;18.58;100.00;98674.78;5113223;28;20501;-58
2023/07/29 01:56:03;;;;;;;0.00;0.00;;;;;;;18.70;100.00;98677.19;5114863;28;20197;-58
2023/07/29 01:58:52;;;;;;;0.00;0.00;;;;;;;18.71;100.00;98682.38;5113686;28;20251;-57
2023/07/29 02:01:39;;;;;;;0.00;0.00;;;;;;;18.76;100.00;98677.41;5113605;28;20217;-58
2023/07/29 02:04:26;;;;;;;0.00;0.00;;;;;;;18.84;100.00;98668.53;5113681;28;20197;-57
2023/07/29 02:07:12;;;;;;;0.10;0.10;;;;;;;18.86;100.00;98670.06;5113218;28;20283;-58
2023/07/29 02:10:00;;;;;;;0.10;0.10;;;;;;;18.66;100.00;98665.94;5113028;28;20256;-58
2023/07/29 02:12:47;;;;;;;0.10;0.10;;;;;;;18.78;100.00;98647.72;5113587;28;20231;-58
2023/07/29 02:15:35;;;;;;;0.10;0.10;;;;;;;18.71;100.00;98658.25;5113371;28;20236;-58
2023/07/29 02:18:22;;;;;;;0.10;0.10;;;;;;;18.70;100.00;98651.19;5114285;28;20228;-57
2023/07/29 02:21:09;;;;;;;0.10;0.10;;;;;;;18.66;100.00;98655.22;5113316;28;20194;-57
2023/07/29 02:23:56;;;;;;;0.10;0.10;;;;;;;18.62;100.00;98648.44;5111943;28;20301;-57
2023/07/29 02:26:43;;;;;;;0.10;0.10;;;;;;;18.74;100.00;98639.16;5113125;28;20202;-57
2023/07/29 02:29:32;;;;;;;0.00;0.00;;;;;;;18.56;100.00;98641.91;5112911;28;20213;-57
2023/07/29 02:32:21;;;;;;;0.10;0.10;;;;;;;18.52;100.00;98637.84;5114078;28;20213;-58
2023/07/29 02:35:08;;;;;;;0.10;0.10;;;;;;;18.49;100.00;98637.34;5113749;28;20248;-57
2023/07/29 02:37:55;;;;;;;0.00;0.00;;;;;;;18.48;100.00;98643.72;5111764;28;20255;-58
2023/07/29 02:40:42;;;;;;;0.00;0.00;;;;;;;18.42;100.00;98647.03;5112884;28;20194;-57
2023/07/29 02:43:29;;;;;;;0.10;0.10;;;;;;;18.46;100.00;98659.97;5112535;28;20439;-57
2023/07/29 02:46:16;;;;;;;0.00;0.00;;;;;;;18.66;100.00;98668.63;5113826;28;20210;-57
2023/07/29 02:49:05;;;;;;;0.10;0.10;;;;;;;18.65;100.00;98663.44;5112632;28;20218;-57
2023/07/29 02:51:52;;;;;;;0.10;0.10;;;;;;;18.68;100.00;98663.94;5111586;28;20240;-58
2023/07/29 02:54:39;;;;;;;0.10;0.10;;;;;;;18.63;100.00;98650.16;5112715;28;20194;-57
2023/07/29 02:57:25;;;;;;;0.00;0.00;;;;;;;18.56;100.00;98647.28;5112676;28;20259;-57
2023/07/29 03:00:15;;;;;;;0.00;0.00;;;;;;;18.55;100.00;98650.13;5112537;28;20198;-57
2023/07/29 03:03:01;;;;;;;0.00;0.00;;;;;;;18.50;100.00;98639.03;5113596;28;20221;-57
2023/07/29 03:05:50;;;;;;;0.00;0.00;;;;;;;18.69;100.00;98636.09;5112488;28;20311;-57
2023/07/29 03:08:37;;;;;;;0.07;0.07;;;;;;;18.70;100.00;98632.41;5112017;28;20202;-57
2023/07/29 03:11:23;;;;;;;0.10;0.10;;;;;;;18.74;100.00;98638.31;5112418;28;20260;-58
2023/07/29 03:14:10;;;;;;;0.00;0.00;;;;;;;18.74;100.00;98633.78;5112463;28;20223;-57
2023/07/29 03:16:58;;;;;;;0.10;0.10;;;;;;;18.82;100.00;98620.41;5113341;28;20247;-58
2023/07/29 03:19:45;;;;;;;0.00;0.00;;;;;;;18.67;100.00;98622.03;5112448;28;20261;-58
2023/07/29 03:22:33;;;;;;;0.10;0.10;;;;;;;18.82;100.00;98622.25;5111060;28;20201;-58
2023/07/29 03:25:20;;;;;;;0.10;0.10;;;;;;;18.69;100.00;98606.59;5112362;28;20198;-57
2023/07/29 03:28:07;;;;;;;0.03;0.03;;;;;;;18.74;100.00;98603.44;5112377;28;20205;-57
2023/07/29 03:30:54;;;;;;;0.00;0.00;;;;;;;18.63;100.00;98593.81;5111934;28;20222;-57
2023/07/29 03:33:41;;;;;;;0.00;0.00;;;;;;;18.79;100.00;98593.88;5112329;28;20207;-57
2023/07/29 03:36:28;;;;;;;0.00;0.00;;;;;;;18.79;100.00;98588.50;5113258;28;20190;-57
2023/07/29 03:39:17;;;;;;;0.00;0.00;;;;;;;18.82;100.00;98582.00;5113261;28;20198;-57
2023/07/29 03:42:04;;;;;;;0.10;0.10;;;;;;;18.83;100.00;98581.84;5113180;28;20213;-57
2023/07/29 03:44:51;;;;;;;0.00;0.00;;;;;;;18.85;100.00;98570.94;5112096;28;20684;-57
2023/07/29 03:47:38;;;;;;;0.00;0.00;;;;;;;18.76;100.00;98567.38;5112179;28;20632;-57
2023/07/29 03:50:25;;;;;;;0.10;0.10;;;;;;;18.82;100.00;98553.31;5111911;28;20218;-57
2023/07/29 03:53:12;;;;;;;0.00;0.00;;;;;;;18.72;100.00;98558.00;5110748;28;20304;-57
2023/07/29 03:56:00;;;;;;;0.00;0.00;;;;;;;18.74;100.00;98557.81;5116005;28;20202;-57
2023/07/29 03:58:47;;;;;;;0.10;0.10;;;;;;;18.73;100.00;98559.69;5116988;28;20197;-57
2023/07/29 04:01:34;;;;;;;0.00;0.00;;;;;;;18.67;100.00;98571.06;5115976;28;20671;-57
2023/07/29 04:04:21;;;;;;;0.10;0.10;;;;;;;18.69;100.00;98565.50;5115711;28;20669;-57
2023/07/29 04:07:08;;;;;;;0.00;0.00;;;;;;;18.55;100.00;98564.28;5114610;28;20390;-58
2023/07/29 04:09:55;;;;;;;0.00;0.00;;;;;;;18.51;100.00;98558.41;5115685;28;20324;-57
2023/07/29 04:12:44;;;;;;;0.00;0.00;;;;;;;18.49;100.00;98563.09;5115787;28;20197;-57
2023/07/29 04:15:31;;;;;;;0.10;0.10;;;;;;;18.37;100.00;98569.75;5116710;28;20194;-57
2023/07/29 04:18:18;;;;;;;0.10;0.10;;;;;;;18.57;100.00;98567.63;5116704;28;20193;-57
2023/07/29 04:21:06;;;;;;;0.00;0.00;;;;;;;18.64;100.00;98571.34;5115588;28;20198;-57
2023/07/29 04:23:53;;;;;;;0.00;0.00;;;;;;;18.70;100.00;98577.94;5115301;28;20197;-57
2023/07/29 04:26:40;;;;;;;0.10;0.10;;;;;;;18.65;100.00;98577.59;5116480;28;20209;-57
2023/07/29 04:29:29;;;;;;;0.00;0.00;;;;;;;18.79;100.00;98587.69;5116434;28;20201;-57
2023/07/29 04:32:16;;;;;;;0.00;0.00;;;;;;;18.74;100.00;98579.28;5116448;28;20233;-57
2023/07/29 04:35:03;;;;;;;0.07;0.07;;;;;;;18.67;100.00;98576.41;5116046;28;20233;-57
2023/07/29 04:37:50;;;;;;;0.00;0.00;;;;;;;18.66;100.00;98584.63;5114862;28;20213;-57
2023/07/29 04:40:38;;;;;;;0.00;0.00;;;;;;;18.80;100.00;98573.25;5115326;28;20194;-56
2023/07/29 04:43:28;;;;;;;0.00;0.00;;;;;;;18.81;100.00;98570.41;5115198;28;20213;-57
2023/07/29 04:46:16;;;;;;;0.00;0.00;;;;;;;18.75;100.00;98571.06;5114679;28;20197;-57
2023/07/29 04:49:03;;;;;;;0.00;0.00;;;;;;;18.67;100.00;98563.00;5115130;28;20194;-57
2023/07/29 04:51:50;;;;;;;0.10;0.10;;;;;;;18.67;100.00;98554.13;5113485;28;20213;-57
2023/07/29 04:54:36;;;;;;;0.00;0.00;;;;;;;18.82;100.00;98545.28;5115511;28;20189;-57
2023/07/29 04:57:23;;;;;;;0.10;0.10;;;;;;;18.92;100.00;98550.47;5115648;28;20550;-57
2023/07/29 05:00:11;;;;;;;0.00;0.00;;;;;;;18.79;100.00;98548.25;5115844;28;20265;-57
2023/07/29 05:03:00;;;;;;;0.00;0.00;;;;;;;18.84;100.00;98545.94;5115684;28;20281;-57
2023/07/29 05:05:47;;;;;;;0.00;0.00;;;;;;;18.77;100.00;98533.34;5115746;28;20198;-57
2023/07/29 05:08:34;;;;;;;0.10;0.10;;;;;;;18.70;100.00;98545.72;5113405;28;20264;-57
2023/07/29 05:11:21;;;;;;;0.00;0.00;;;;;;;18.75;100.00;98540.72;5114312;28;20221;-57
2023/07/29 05:14:09;;;;;;;0.10;0.10;;;;;;;18.93;100.00;98548.63;5114518;28;20197;-57
2023/07/29 05:16:56;;;;;;;0.00;0.00;;;;;;;18.82;100.00;98544.44;5115548;28;20276;-57
2023/07/29 05:19:44;;;;;;;0.00;0.00;;;;;;;18.90;100.00;98543.56;5114477;28;20263;-57
2023/07/29 05:22:31;;;;;;;0.00;0.00;;;;;;;19.16;100.00;98544.28;5114344;28;20275;-57
2023/07/29 05:25:18;;;;;;;0.00;0.00;;;;;;;19.20;100.00;98542.91;5114346;28;20263;-57
2023/07/29 05:28:05;;;;;;;0.10;0.10;;;;;;;19.33;100.00;98531.69;5114069;28;20197;-57
2023/07/29 05:30:51;;;;;;;0.10;0.10;;;;;;;19.17;100.00;98532.53;5114157;28;20221;-57
2023/07/29 05:33:38;;;;;;;0.00;0.00;;;;;;;19.31;100.00;98539.91;5114296;28;20287;-57
2023/07/29 05:36:27;;;;;;;0.00;0.00;;;;;;;19.28;100.00;98542.09;5113960;28;20239;-57
2023/07/29 05:39:14;;;;;;;0.03;0.03;;;;;;;19.33;100.00;98548.63;5115067;28;20269;-57
2023/07/29 05:42:03;;;;;;;0.00;0.00;;;;;;;19.48;100.00;98551.47;5114116;28;20190;-57
2023/07/29 05:44:50;;;;;;;0.00;0.00;;;;;;;19.55;100.00;98562.38;5113849;28;20202;-57
2023/07/29 05:47:39;;;;;;;0.10;0.10;;;;;;;19.47;100.00;98559.69;5113950;28;20232;-57
2023/07/29 05:50:26;;;;;;;0.10;0.10;;;;;;;19.42;100.00;98552.16;5114804;28;20214;-57
2023/07/29 05:53:15;;;;;;;0.00;0.00;;;;;;;19.58;100.00;98560.22;5112403;28;20746;-57
2023/07/29 05:56:02;;;;;;;0.00;0.00;;;;;;;19.72;100.00;98556.84;5114864;28;20269;-57
2023/07/29 05:58:49;;;;;;;0.00;0.00;;;;;;;19.75;100.00;98561.03;5114758;28;20320;-57
2023/07/29 06:01:36;;;;;;;0.10;0.10;;;;;;;19.75;100.00;98561.03;5113596;28;20201;-57
2023/07/29 06:04:23;;;;;;;0.10;0.10;;;;;;;19.59;100.00;98561.91;5114569;28;20202;-57
2023/07/29 06:07:11;;;;;;;0.10;0.10;;;;;;;19.60;100.00;98560.06;5111990;28;20214;-57
2023/07/29 06:09:59;;;;;;;0.00;0.00;;;;;;;19.42;100.00;98563.75;5114432;28;20320;-57
2023/07/29 06:12:46;;;;;;;0.10;0.10;;;;;;;19.42;100.00;98566.44;5113340;28;20233;-56
2023/07/29 06:15:34;;;;;;;0.10;0.10;;;;;;;19.53;100.00;98567.94;5113427;28;20202;-57
2023/07/29 06:18:21;;;;;;;0.00;0.00;;;;;;;19.63;100.00;98574.00;5113699;28;20252;-57
2023/07/29 06:21:12;;;;;;;0.00;0.00;;;;;;;19.68;100.00;98576.16;5113302;28;20198;-57
2023/07/29 06:23:58;;;;;;;0.00;0.00;;;;;;;19.47;100.00;98573.13;5112921;28;20198;-57
2023/07/29 06:26:48;;;;;;;0.00;0.00;;;;;;;19.53;100.00;98580.53;5113289;28;20198;-57
2023/07/29 06:29:34;;;;;;;0.00;0.00;;;;;;;19.66;100.00;98570.13;5114276;28;20210;-56
2023/07/29 06:32:21;;;;;;;0.00;0.00;;;;;;;19.61;100.00;98567.97;5113804;28;20281;-57
2023/07/29 06:35:08;;;;;;;0.00;0.00;;;;;;;19.66;100.00;98576.31;5113687;28;20350;-57
2023/07/29 06:37:55;;;;;;;0.00;0.00;;;;;;;19.81;100.00;98581.03;5112690;28;20676;-58
2023/07/29 06:40:42;;;;;;;0.00;0.00;;;;;;;19.60;100.00;98573.50;5113884;28;20198;-57
2023/07/29 06:43:30;;;;;;;0.00;0.00;;;;;;;19.55;100.00;98575.81;5113805;28;20198;-57
2023/07/29 06:46:17;;;;;;;0.10;0.10;;;;;;;19.87;100.00;98583.84;5113884;28;20267;-57
2023/07/29 06:49:06;;;;;;;0.10;0.10;;;;;;;19.98;100.00;98582.66;5113780;28;20197;-57
2023/07/29 06:51:53;;;;;;;0.10;0.10;;;;;;;19.72;100.00;98572.97;5112194;28;20222;-56
2023/07/29 06:54:40;;;;;;;0.00;0.00;;;;;;;19.83;100.00;98574.47;5113796;28;20612;-57
2023/07/29 06:57:27;;;;;;;0.00;0.00;;;;;;;19.71;100.00;98549.78;5113600;28;20268;-57
2023/07/29 07:00:15;;;;;;;0.00;0.00;;;;;;;19.84;100.00;98538.50;5113604;28;20193;-57
2023/07/29 07:03:02;;;;;;;0.10;0.10;;;;;;;19.89;100.00;98538.00;5113630;28;20226;-57
2023/07/29 07:05:49;;;;;;;0.00;0.00;;;;;;;19.82;100.00;98526.25;5113667;28;20210;-57
2023/07/29 07:08:36;;;;;;;0.10;0.10;;;;;;;19.80;100.00;98515.69;5112165;28;20193;-57
2023/07/29 07:11:24;;;;;;;0.10;0.10;;;;;;;19.79;100.00;98537.34;5113372;28;20217;-57
2023/07/29 07:14:10;;;;;;;0.00;0.00;;;;;;;19.72;100.00;98538.03;5113443;28;20204;-57
2023/07/29 07:16:59;;;;;;;0.10;0.10;;;;;;;19.68;100.00;98547.44;5113390;28;20189;-57
2023/07/29 07:19:46;;;;;;;0.07;0.07;;;;;;;19.49;100.00;98568.41;5113266;28;20194;-57
2023/07/29 07:22:33;;;;;;;0.00;0.00;;;;;;;19.52;100.00;98550.13;5111991;28;20198;-57
2023/07/29 07:25:20;;;;;;;0.00;0.00;;;;;;;19.48;100.00;98556.00;5113293;28;20195;-58
2023/07/29 07:28:07;;;;;;;0.10;0.10;;;;;;;19.51;100.00;98571.81;5113264;28;20208;-57
2023/07/29 07:30:55;;;;;;;0.00;0.00;;;;;;;19.37;100.00;98589.41;5116280;28;20202;-57
2023/07/29 07:33:43;;;;;;;0.00;0.00;;;;;;;19.44;100.00;98601.19;5117454;28;20240;-57
2023/07/29 07:36:30;;;;;;;0.00;0.00;;;;;;;19.39;100.00;98601.66;5117557;28;20301;-57
2023/07/29 07:39:17;;;;;;;0.00;0.00;;;;;;;19.45;100.00;98606.38;5117418;28;20182;-58
2023/07/29 07:42:05;;;;;;;0.10;0.10;;;;;;;19.49;100.00;98606.88;5116768;28;20741;-57
2023/07/29 07:44:52;;;;;;;0.10;0.10;;;;;;;19.58;100.00;98613.09;5116191;28;20218;-57
2023/07/29 07:47:39;;;;;;;0.10;0.10;;;;;;;19.57;100.00;98611.44;5116919;28;20212;-58
2023/07/29 07:50:30;;;;;;;0.03;0.03;;;;;;;19.54;100.00;98609.91;5117305;28;20692;-57
2023/07/29 07:53:17;;;;;;;0.00;0.00;;;;;;;19.90;100.00;98604.19;5115557;28;20260;-57
2023/07/29 07:56:04;;;;;;;0.10;0.10;;;;;;;20.07;100.00;98602.28;5116959;28;20236;-57
2023/07/29 07:58:51;;;;;;;0.00;0.00;;;;;;;20.21;100.00;98604.28;5116998;28;20236;-57
2023/07/29 08:01:38;;;;;;;0.00;0.00;;;;;;;20.58;100.00;98588.34;5116978;28;20187;-57
2023/07/29 08:04:25;;;;;;;0.03;0.03;;;;;;;20.51;100.00;98581.97;5116684;28;20676;-57
2023/07/29 08:07:14;;;;;;;0.10;0.10;;;;;;;20.57;100.00;98565.16;5115548;28;20202;-57
2023/07/29 08:10:00;;;;;;;0.00;0.00;;;;;;;20.79;100.00;98568.03;5116876;28;20299;-57
2023/07/29 08:12:47;;;;;;;0.10;0.10;;;;;;;20.36;100.00;98555.94;5116440;28;20218;-57
2023/07/29 08:15:34;;;;;;;0.10;0.10;;;;;;;20.41;100.00;98557.13;5116888;28;20193;-57
2023/07/29 08:18:22;;;;;;;0.10;0.10;;;;;;;20.40;100.00;98563.50;5116784;28;20192;-57
2023/07/29 08:21:08;;;;;;;0.10;0.10;;;;;;;20.24;100.00;98555.50;5116549;28;20680;-57
2023/07/29 08:23:57;;;;;;;0.10;0.10;;;;;;;20.25;100.00;98554.50;5115380;28;20202;-57
2023/07/29 08:26:43;;;;;;;0.10;0.10;;;;;;;20.30;100.00;98554.81;5116616;28;20289;-57
2023/07/29 08:29:30;;;;;;;0.00;0.00;;;;;;;20.47;100.00;98561.00;5116685;28;20190;-57
2023/07/29 08:32:17;;;;;;;0.10;0.10;;;;;;;20.53;100.00;98555.72;5116278;28;20209;-57
2023/07/29 08:35:04;;;;;;;0.00;0.00;;;;;;;20.91;100.00;98546.94;5116084;28;20283;-57
2023/07/29 08:37:51;;;;;;;0.10;0.10;;;;;;;21.48;100.00;98547.34;5114837;28;20214;-57
2023/07/29 08:40:46;;;;;;;0.10;0.10;;;;;;;22.01;100.00;98515.78;5115794;28;20193;-57
2023/07/29 08:43:34;;;;;;;0.10;0.10;;;;;;;22.25;100.00;98501.19;5116192;28;20210;-57
2023/07/29 08:46:21;;;;;;;0.10;0.10;;;;;;;22.96;100.00;98477.88;5116121;28;20692;-57
2023/07/29 08:49:08;;;;;;;0.10;0.10;;;;;;;22.79;100.00;98450.28;5116157;28;20190;-57
2023/07/29 08:51:58;;;;;;;0.10;0.10;;;;;;;23.19;100.00;98441.72;5114648;28;20209;-57
2023/07/29 08:54:45;;;;;;;0.00;0.00;;;;;;;23.34;100.00;98445.97;5115883;28;20240;-57
2023/07/29 08:57:33;;;;;;;0.00;0.00;;;;;;;22.96;100.00;98437.34;5115925;28;20201;-57
2023/07/29 09:00:20;;;;;;;0.10;0.10;;;;;;;22.82;100.00;98451.75;5115888;28;20202;-57
2023/07/29 09:03:07;;;;;;;0.10;0.10;;;;;;;22.90;100.00;98445.41;5115791;28;20664;-57
2023/07/29 09:05:57;;;;;;;0.10;0.10;;;;;;;23.31;100.00;98442.81;5115783;28;20673;-57
2023/07/29 09:08:44;;;;;;;0.10;0.10;;;;;;;23.36;100.00;98443.09;5114433;28;20190;-57
2023/07/29 09:11:32;;;;;;;0.10;0.10;;;;;;;23.15;100.00;98430.44;5115680;28;20193;-57
2023/07/29 09:14:20;;;;;;;0.10;0.10;;;;;;;23.28;100.00;98432.41;5115640;28;20194;-57
2023/07/29 09:17:09;;;;;;;0.03;0.03;;;;;;;23.15;100.00;98422.31;5115629;28;20199;-57
2023/07/29 09:19:56;;;;;;;0.10;0.10;;;;;;;23.27;100.00;98419.94;5115435;28;20194;-57
2023/07/29 09:22:45;;;;;;;0.10;0.10;;;;;;;23.49;100.00;98413.44;5114191;28;20178;-57
2023/07/29 09:25:31;;;;;;;0.00;0.00;;;;;;;23.08;100.00;98406.09;5115398;28;20872;-57
2023/07/29 09:28:18;;;;;;;0.10;0.10;;;;;;;23.77;100.00;98401.75;5115384;28;20196;-56
2023/07/29 09:31:07;;;;;;;0.10;0.10;;;;;;;24.25;100.00;98394.44;5115305;28;20198;-56
2023/07/29 09:33:58;;;;;;;0.10;0.10;;;;;;;24.09;100.00;98383.97;5114783;28;20236;-57
2023/07/29 09:36:45;;;;;;;0.08;0.08;;;;;;;24.16;100.00;98382.94;5113830;28;20198;-56
2023/07/29 09:39:32;;;;;;;0.10;0.10;;;;;;;24.12;100.00;98381.69;5115092;28;20319;-57
2023/07/29 09:42:20;;;;;;;0.05;0.05;;;;;;;24.66;100.00;98390.78;5115092;28;20228;-57
2023/07/29 09:45:08;;;;;;;0.00;0.00;;;;;;;25.20;100.00;98385.19;5115011;28;20685;-57
2023/07/29 09:47:58;;;;;;;0.10;0.10;;;;;;;25.52;100.00;98371.75;5114862;28;20198;-57
2023/07/29 09:50:45;;;;;;;0.00;0.00;;;;;;;25.58;100.00;98363.59;5114867;28;20202;-57
2023/07/29 09:53:32;;;;;;;0.10;0.10;;;;;;;26.01;100.00;98354.03;5112483;28;20222;-56
2023/07/29 09:56:25;;;;;;;0.08;0.08;;;;;;;26.15;100.00;98361.91;5113859;28;20198;-57
2023/07/29 09:59:12;;;;;;;0.03;0.03;;;;;;;26.04;100.00;98367.19;5114565;28;20203;-57
2023/07/29 10:02:00;;;;;;;0.00;0.00;;;;;;;26.02;100.00;98367.41;5114691;28;20206;-57
2023/07/29 10:04:49;;;;;;;0.10;0.10;;;;;;;25.82;100.00;98367.50;5114644;28;20329;-57
2023/07/29 10:07:37;;;;;;;0.00;0.00;;;;;;;26.24;100.00;98355.16;5113245;28;20194;-57
2023/07/29 10:10:24;;;;;;;0.00;0.00;;;;;;;26.37;100.00;98362.44;5114559;28;20198;-57
2023/07/29 10:13:12;;;;;;;0.03;0.03;;;;;;;26.91;100.00;98358.22;5114166;28;20213;-57
2023/07/29 10:16:02;;;;;;;0.03;0.03;;;;;;;27.33;100.00;98350.34;5114220;28;20680;-57
2023/07/29 10:18:49;;;;;;;0.00;0.00;;;;;;;27.29;100.00;98354.56;5114290;28;20190;-57
2023/07/29 10:21:40;;;;;;;0.00;0.00;;;;;;;26.96;100.00;98338.56;5113128;28;20259;-57
2023/07/29 10:24:33;;;;;;;0.00;0.00;;;;;;;27.30;100.00;98331.75;5114109;28;20229;-57
2023/07/29 10:27:21;;;;;;;0.00;0.00;;;;;;;27.41;100.00;98331.00;5114225;28;20198;-57
2023/07/29 10:30:11;;;;;;;0.00;0.00;;;;;;;26.94;100.00;98324.34;5114213;28;20266;-57
2023/07/29 10:33:02;;;;;;;0.10;0.10;;;;;;;26.33;100.00;98327.72;5113947;28;20252;-57
2023/07/29 10:35:50;;;;;;;0.10;0.10;;;;;;;27.03;100.00;98326.59;5113670;28;20225;-57
2023/07/29 10:38:38;;;;;;;0.00;0.00;;;;;;;27.75;100.00;98315.97;5112787;28;20700;-56
2023/07/29 10:42:01;;;;;;;0.10;0.10;;;;;;;27.51;100.00;98317.72;5113623;28;20194;-57
2023/07/29 10:44:52;;;;;;;0.10;0.10;;;;;;;26.93;100.00;98323.53;5113632;28;20198;-57
2023/07/29 10:47:39;;;;;;;0.00;0.00;;;;;;;26.16;100.00;98309.28;5113802;28;20198;-57
2023/07/29 10:50:27;;;;;;;0.00;0.00;;;;;;;25.76;100.00;98305.94;5113693;28;20201;-57
2023/07/29 10:53:17;;;;;;;0.10;0.10;;;;;;;25.09;100.00;98304.47;5112484;28;20206;-56
2023/07/29 10:56:05;;;;;;;0.10;0.10;;;;;;;24.80;100.00;98300.34;5113692;28;20329;-57
2023/07/29 10:58:52;;;;;;;0.10;0.10;;;;;;;24.67;100.00;98303.91;5112777;28;20194;-56
2023/07/29 11:01:42;;;;;;;0.10;0.10;;;;;;;24.44;100.00;98308.91;5113826;28;20245;-56
2023/07/29 11:04:31;;;;;;;0.00;0.00;;;;;;;23.86;100.00;98306.72;5113419;28;20186;-56
2023/07/29 11:07:26;;;;;;;0.10;0.10;;;;;;;23.56;100.00;98291.81;5112033;28;20717;-56
2023/07/29 11:10:14;;;;;;;0.10;0.10;;;;;;;23.35;100.00;98333.28;5113326;28;20293;-56
2023/07/29 11:13:02;;;;;;;0.10;0.10;;;;;;;22.70;100.00;98365.03;5113305;28;20194;-56
2023/07/29 11:15:51;;;;;;;0.10;0.10;;;;;;;21.33;100.00;98356.03;5112874;28;20201;-56
2023/07/29 11:18:39;;;;;;;0.10;0.10;;;;;;;20.68;100.00;98382.75;5113351;28;20202;-56
2023/07/29 11:21:26;;;;;;;0.10;0.10;;;;;;;20.31;100.00;98405.88;5113115;28;20194;-56
2023/07/29 11:24:18;;;;;;;0.10;0.10;;;;;;;20.32;100.00;98426.34;5113215;28;20233;-56
2023/07/29 11:27:06;;;;;;;0.10;0.10;;;;;;;20.15;100.00;98431.00;5113262;28;20201;-56
2023/07/29 11:29:59;;;;;;;0.10;0.10;;;;;;;19.93;100.00;98424.56;5113291;28;20201;-56
2023/07/29 11:32:47;;;;;;;0.10;0.10;;;;;;;19.85;100.00;98431.81;5112269;28;20190;-56
2023/07/29 11:35:34;;;;;;;0.10;0.10;;;;;;;19.92;100.00;98451.63;5112909;28;20229;-56
2023/07/29 11:38:23;;;;;;;0.10;0.10;;;;;;;19.76;100.00;98449.84;5111930;28;20201;-57
2023/07/29 11:41:10;;;;;;;0.10;0.10;;;;;;;20.55;100.00;98440.69;5113200;28;20186;-57
2023/07/29 11:43:57;;;;;;;0.10;0.10;;;;;;;23.02;100.00;98430.34;5113156;28;20190;-57
2023/07/29 11:46:48;;;;;;;0.10;0.10;;;;;;;25.53;100.00;98406.78;5113190;28;20282;-57
2023/07/29 11:49:35;;;;;;;0.10;0.10;;;;;;;27.88;100.00;98389.28;5112815;28;20186;-57
2023/07/29 11:52:21;;;;;;;0.00;0.00;;;;;;;28.21;100.00;98380.69;5111760;28;20210;-57
2023/07/29 11:55:09;;;;;;;0.00;0.00;;;;;;;29.65;100.00;98377.75;5112499;28;20238;-57
2023/07/29 11:57:56;;;;;;;0.00;0.00;;;;;;;30.60;100.00;98377.16;5112979;28;20194;-58
2023/07/29 12:00:43;;;;;;;0.00;0.00;;;;;;;32.17;93.71;98366.91;5113123;28;20260;-57
2023/07/29 12:03:31;;;;;;;0.00;0.00;;;;;;;31.34;95.16;98361.44;5112902;28;20206;-57
2023/07/29 12:06:18;;;;;;;0.00;0.00;;;;;;;31.97;89.00;98363.94;5112801;28;20202;-57
2023/07/29 12:09:07;;;;;;;0.00;0.00;;;;;;;32.17;82.50;98366.91;5112899;28;20424;-58
2023/07/29 12:11:54;;;;;;;0.00;0.00;;;;;;;32.04;83.68;98362.66;5110075;28;20202;-57
2023/07/29 12:14:45;;;;;;;0.00;0.00;;;;;;;33.10;77.09;98352.97;5112035;28;20221;-58
2023/07/29 12:17:31;;;;;;;0.00;0.00;;;;;;;33.75;69.03;98358.03;5095937;28;20194;-58
2023/07/29 12:20:21;;;;;;;0.00;0.00;;;;;;;35.01;60.80;98347.63;5105759;28;20665;-58
2023/07/29 12:23:08;;;;;;;0.00;0.00;;;;;;;34.75;61.89;98343.22;5114962;28;20213;-57
2023/07/29 12:25:58;;;;;;;0.00;0.00;;;;;;;34.06;59.93;98345.25;5116235;28;20726;-57
2023/07/29 12:28:47;;;;;;;0.00;0.00;;;;;;;35.96;55.93;98350.44;5115658;28;20206;-58
2023/07/29 12:31:34;;;;;;;0.00;0.00;;;;;;;35.38;58.83;98351.97;5115688;28;20190;-58
2023/07/29 12:34:21;;;;;;;0.00;0.00;;;;;;;37.24;47.36;98350.34;5115577;28;20280;-58
2023/07/29 12:37:09;;;;;;;0.00;0.00;;;;;;;36.47;51.34;98357.63;5114518;28;20280;-56
2023/07/29 12:39:56;;;;;;;0.00;0.00;;;;;;;36.28;54.00;98354.66;5115185;28;20198;-57
2023/07/29 12:42:43;;;;;;;0.00;0.00;;;;;;;36.77;52.89;98353.78;5115499;28;20340;-56
2023/07/29 12:45:39;;;;;;;0.00;0.00;;;;;;;37.17;51.41;98347.97;5115689;28;20323;-57
2023/07/29 12:48:26;;;;;;;0.00;0.00;;;;;;;37.01;51.23;98346.44;5115364;28;20190;-57
2023/07/29 12:51:13;;;;;;;0.00;0.00;;;;;;;36.11;53.07;98341.28;5115564;28;20198;-57
2023/07/29 12:54:02;;;;;;;0.00;0.00;;;;;;;36.36;51.80;98337.53;5114595;28;20353;-58
2023/07/29 12:56:49;;;;;;;0.00;0.00;;;;;;;36.30;49.89;98341.44;5115344;28;20190;-56
2023/07/29 12:59:37;;;;;;;0.00;0.00;;;;;;;37.88;48.89;98340.03;5114607;28;20252;-57
2023/07/29 13:02:23;;;;;;;0.00;0.00;;;;;;;38.70;44.75;98326.66;5115012;28;20202;-58